createdAt,value
2023-03-31T00:01:41.835Z,31.90
2023-03-31T00:04:12.537Z,34.73
2023-03-31T00:06:42.417Z,36.68
2023-03-31T00:09:18.447Z,39.25
2023-03-31T00:11:47.842Z,33.25
2023-03-31T00:14:19.232Z,33.90
2023-03-31T00:16:50.994Z,36.13
2023-03-31T00:19:21.814Z,36.08
2023-03-31T00:21:51.432Z,33.40
2023-03-31T00:24:20.149Z,33.30
2023-03-31T00:26:49.437Z,31.95
2023-03-31T00:29:20.851Z,34.05
2023-03-31T00:31:51.868Z,34.13
2023-03-31T00:34:21.378Z,32.20
2023-03-31T00:36:50.642Z,36.90
2023-03-31T00:39:19.429Z,40.65
2023-03-31T00:41:48.134Z,37.35
2023-03-31T00:44:29.240Z,42.30
2023-03-31T00:47:17.540Z,37.38
2023-03-31T00:49:49.555Z,39.18
2023-03-31T00:52:23.123Z,40.75
2023-03-31T00:54:58.525Z,49.35
2023-03-31T00:57:28.709Z,41.88
2023-03-31T01:00:01.250Z,45.88
2023-03-31T01:02:31.761Z,44.20
2023-03-31T01:05:02.040Z,46.48
2023-03-31T01:07:44.367Z,49.95
2023-03-31T01:10:13.748Z,45.40
2023-03-31T01:12:47.480Z,45.50
2023-03-31T01:15:16.546Z,51.00
2023-03-31T01:17:45.656Z,42.43
2023-03-31T01:20:27.480Z,42.05
2023-03-31T01:23:41.434Z,42.43
2023-03-31T01:26:44.373Z,36.98
2023-03-31T01:29:50.868Z,37.03
2023-03-31T01:32:57.273Z,36.30
2023-03-31T01:35:43.972Z,37.23
2023-03-31T01:38:34.863Z,33.60
2023-03-31T01:41:38.917Z,32.25
2023-03-31T01:44:35.707Z,38.98
2023-03-31T01:47:12.812Z,37.25
2023-03-31T01:50:03.611Z,39.75
2023-03-31T01:53:02.838Z,37.95
2023-03-31T01:55:44.731Z,38.02
2023-03-31T01:58:32.450Z,37.67
2023-03-31T02:03:39.009Z,36.85
2023-03-31T02:06:19.416Z,35.10
2023-03-31T02:08:56.093Z,40.23
2023-03-31T02:11:26.831Z,28.47
2023-03-31T02:13:56.965Z,27.75
2023-03-31T02:16:26.924Z,28.83
2023-03-31T02:19:00.157Z,32.67
2023-03-31T02:21:34.676Z,29.15
2023-03-31T02:24:09.810Z,31.60
2023-03-31T02:26:47.538Z,30.85
2023-03-31T02:29:16.967Z,31.33
2023-03-31T02:32:17.219Z,29.30
2023-03-31T02:34:47.556Z,30.05
2023-03-31T02:37:17.589Z,31.02
2023-03-31T02:39:50.318Z,33.50
2023-03-31T02:42:21.440Z,32.03
2023-03-31T02:44:51.618Z,33.42
2023-03-31T02:47:21.455Z,31.57
2023-03-31T02:49:57.416Z,30.95
2023-03-31T02:52:41.498Z,28.83
2023-03-31T02:55:27.882Z,29.42
2023-03-31T02:58:18.816Z,28.47
2023-03-31T03:01:13.960Z,28.60
2023-03-31T03:04:23.986Z,28.27
2023-03-31T03:07:15.873Z,26.48
2023-03-31T03:10:09.668Z,26.90
2023-03-31T03:12:47.221Z,23.45
2023-03-31T03:15:34.632Z,26.90
2023-03-31T03:18:04.415Z,28.27
2023-03-31T03:20:33.818Z,28.95
2023-03-31T03:23:02.845Z,30.10
2023-03-31T03:25:31.615Z,30.95
2023-03-31T03:28:00.789Z,30.82
2023-03-31T03:30:30.270Z,29.72
2023-03-31T03:33:00.954Z,26.48
2023-03-31T03:35:31.612Z,29.87
2023-03-31T03:38:00.537Z,26.50
2023-03-31T03:40:30.392Z,23.10
2023-03-31T03:42:59.643Z,21.80
2023-03-31T03:45:30.147Z,20.40
2023-03-31T03:48:00.833Z,18.35
2023-03-31T03:50:31.466Z,17.20
2023-03-31T03:53:01.627Z,21.42
2023-03-31T03:55:30.872Z,21.45
2023-03-31T03:57:59.848Z,20.45
2023-03-31T04:00:28.452Z,22.02
2023-03-31T04:02:57.835Z,24.37
2023-03-31T04:05:26.860Z,22.93
2023-03-31T04:07:57.005Z,22.58
2023-03-31T04:10:27.568Z,22.98
2023-03-31T04:12:56.681Z,20.35
2023-03-31T04:15:25.777Z,19.60
2023-03-31T04:17:56.828Z,18.30
2023-03-31T04:20:30.337Z,17.92
2023-03-31T04:22:58.983Z,25.40
2023-03-31T04:25:29.654Z,20.70
2023-03-31T04:27:58.770Z,18.50
2023-03-31T04:30:32.151Z,18.32
2023-03-31T04:33:03.825Z,17.48
2023-03-31T04:35:45.424Z,20.08
2023-03-31T04:38:19.847Z,18.35
2023-03-31T04:40:50.270Z,17.35
2023-03-31T04:43:20.423Z,17.92
2023-03-31T04:45:49.525Z,18.67
2023-03-31T04:48:24.989Z,24.00
2023-03-31T04:51:06.628Z,20.65
2023-03-31T04:53:37.188Z,22.48
2023-03-31T04:56:07.487Z,16.07
2023-03-31T04:58:36.536Z,19.92
2023-03-31T05:01:08.166Z,16.15
2023-03-31T05:03:38.433Z,23.98
2023-03-31T05:06:08.713Z,18.57
2023-03-31T05:08:37.988Z,19.27
2023-03-31T05:11:09.438Z,17.05
2023-03-31T05:13:38.438Z,20.72
2023-03-31T05:16:09.550Z,19.50
2023-03-31T05:18:39.776Z,19.40
2023-03-31T05:21:14.395Z,24.27
2023-03-31T05:23:43.498Z,18.52
2023-03-31T05:26:13.593Z,19.12
2023-03-31T05:28:44.144Z,17.70
2023-03-31T05:31:13.158Z,19.90
2023-03-31T05:33:43.309Z,14.68
2023-03-31T05:36:15.298Z,16.15
2023-03-31T05:38:44.434Z,14.93
2023-03-31T05:41:13.737Z,19.55
2023-03-31T05:43:43.520Z,15.43
2023-03-31T05:46:12.668Z,14.68
2023-03-31T05:48:41.765Z,15.78
2023-03-31T05:51:10.575Z,17.40
2023-03-31T05:53:39.343Z,18.25
2023-03-31T05:56:08.630Z,16.93
2023-03-31T05:58:42.051Z,25.10
2023-03-31T06:01:18.265Z,21.55
2023-03-31T06:03:48.841Z,27.35
2023-03-31T06:06:18.208Z,18.85
2023-03-31T06:08:48.503Z,20.15
2023-03-31T06:11:20.178Z,26.05
2023-03-31T06:13:49.136Z,18.07
2023-03-31T06:16:19.351Z,20.02
2023-03-31T06:18:50.653Z,18.65
2023-03-31T06:21:20.493Z,21.87
2023-03-31T06:23:52.442Z,20.35
2023-03-31T06:26:24.152Z,19.23
2023-03-31T06:28:53.846Z,20.62
2023-03-31T06:31:24.514Z,16.23
2023-03-31T06:33:53.196Z,18.15
2023-03-31T06:36:23.349Z,16.42
2023-03-31T06:38:52.190Z,16.73
2023-03-31T06:41:21.864Z,20.90
2023-03-31T06:43:50.763Z,15.98
2023-03-31T06:46:20.080Z,17.07
2023-03-31T06:48:49.092Z,13.83
2023-03-31T06:51:17.855Z,16.42
2023-03-31T06:53:46.863Z,16.50
2023-03-31T06:56:16.158Z,16.42
2023-03-31T06:58:45.829Z,20.68
2023-03-31T07:01:14.807Z,21.05
2023-03-31T07:03:45.433Z,25.37
2023-03-31T07:06:14.926Z,21.15
2023-03-31T07:08:43.784Z,16.17
2023-03-31T07:11:13.372Z,22.27
2023-03-31T07:13:43.159Z,17.92
2023-03-31T07:16:14.014Z,22.85
2023-03-31T07:18:42.942Z,16.82
2023-03-31T07:21:11.993Z,15.15
2023-03-31T07:23:42.150Z,24.00
2023-03-31T07:26:11.044Z,17.37
2023-03-31T07:28:40.267Z,14.38
2023-03-31T07:31:13.620Z,16.82
2023-03-31T07:33:43.398Z,21.73
2023-03-31T07:36:14.127Z,13.03
2023-03-31T07:38:46.816Z,13.40
2023-03-31T07:41:19.219Z,12.58
2023-03-31T07:43:48.705Z,16.10
2023-03-31T07:46:27.453Z,15.53
2023-03-31T07:48:56.523Z,15.45
2023-03-31T07:51:26.730Z,14.80
2023-03-31T07:53:56.237Z,17.00
2023-03-31T07:56:25.679Z,19.92
2023-03-31T07:58:57.527Z,15.45
2023-03-31T08:01:28.328Z,13.50
2023-03-31T08:03:58.727Z,16.02
2023-03-31T08:06:28.738Z,18.48
2023-03-31T08:08:58.283Z,15.32
2023-03-31T08:11:33.243Z,15.53
2023-03-31T08:14:04.177Z,16.35
2023-03-31T08:16:33.166Z,17.55
2023-03-31T08:19:03.131Z,15.70
2023-03-31T08:21:32.050Z,13.40
2023-03-31T08:24:02.305Z,20.27
2023-03-31T08:26:32.742Z,11.43
2023-03-31T08:29:02.161Z,12.45
2023-03-31T08:31:31.468Z,11.22
2023-03-31T08:34:00.718Z,14.93
2023-03-31T08:36:30.671Z,16.00
2023-03-31T08:38:59.479Z,13.58
2023-03-31T08:41:36.320Z,11.65
2023-03-31T08:44:13.077Z,13.13
2023-03-31T08:46:44.249Z,10.65
2023-03-31T08:49:16.486Z,10.72
2023-03-31T08:51:52.279Z,14.00
2023-03-31T08:54:43.742Z,7.80
2023-03-31T08:57:32.597Z,14.63
2023-03-31T09:00:03.462Z,8.83
2023-03-31T09:02:52.564Z,9.45
2023-03-31T09:05:33.131Z,8.70
2023-03-31T09:08:19.042Z,9.48
2023-03-31T09:11:16.211Z,10.38
2023-03-31T09:13:59.210Z,12.73
2023-03-31T09:16:36.057Z,10.13
2023-03-31T09:19:17.018Z,9.30
2023-03-31T09:21:51.441Z,10.35
2023-03-31T09:24:34.386Z,11.28
2023-03-31T09:27:08.488Z,9.05
2023-03-31T09:29:53.388Z,10.05
2023-03-31T09:32:28.591Z,8.30
2023-03-31T09:35:04.412Z,10.48
2023-03-31T09:37:34.390Z,10.45
2023-03-31T09:40:06.159Z,10.40
2023-03-31T09:42:35.746Z,9.78
2023-03-31T09:45:05.526Z,13.93
2023-03-31T09:47:42.434Z,9.20
2023-03-31T09:50:11.404Z,9.45
2023-03-31T09:52:59.854Z,12.20
2023-03-31T09:55:50.353Z,14.25
2023-03-31T09:58:20.581Z,11.48
2023-03-31T10:01:04.631Z,11.60
2023-03-31T10:03:36.573Z,21.20
2023-03-31T10:06:11.465Z,13.08
2023-03-31T10:09:01.349Z,9.73
2023-03-31T10:11:30.545Z,9.58
2023-03-31T10:14:05.327Z,11.10
2023-03-31T10:16:56.132Z,11.35
2023-03-31T10:19:30.127Z,9.68
2023-03-31T10:22:05.623Z,9.08
2023-03-31T10:24:42.887Z,10.13
2023-03-31T10:27:28.373Z,10.05
2023-03-31T10:29:59.075Z,8.90
2023-03-31T10:32:31.912Z,13.08
2023-03-31T10:35:26.779Z,13.83
2023-03-31T10:37:59.248Z,7.87
2023-03-31T10:40:29.546Z,9.45
2023-03-31T10:43:18.676Z,7.35
2023-03-31T10:45:55.893Z,7.65
2023-03-31T10:48:37.229Z,10.20
2023-03-31T10:51:19.155Z,13.80
2023-03-31T10:53:51.519Z,8.80
2023-03-31T10:56:37.579Z,8.58
2023-03-31T10:59:28.179Z,9.28
2023-03-31T11:02:27.414Z,8.70
2023-03-31T11:05:17.768Z,10.32
2023-03-31T11:08:05.789Z,8.73
2023-03-31T11:11:01.281Z,10.95
2023-03-31T11:14:03.905Z,12.30
2023-03-31T11:16:44.043Z,12.47
2023-03-31T11:19:22.318Z,9.58
2023-03-31T11:22:30.910Z,11.45
2023-03-31T11:25:20.124Z,13.10
2023-03-31T11:28:20.630Z,10.63
2023-03-31T11:30:54.689Z,15.10
2023-03-31T11:33:50.865Z,11.08
2023-03-31T11:36:41.229Z,13.08
2023-03-31T11:39:21.852Z,13.62
2023-03-31T11:41:57.757Z,25.90
2023-03-31T11:44:27.807Z,9.38
2023-03-31T11:47:03.502Z,10.30
2023-03-31T11:49:41.981Z,11.93
2023-03-31T11:52:19.277Z,10.18
2023-03-31T11:55:06.785Z,11.50
2023-03-31T11:58:14.752Z,16.73
2023-03-31T12:00:48.511Z,15.98
2023-03-31T12:03:29.046Z,9.33
2023-03-31T12:06:09.202Z,9.75
2023-03-31T12:08:56.818Z,9.83
2023-03-31T12:11:33.534Z,16.97
2023-03-31T12:14:14.408Z,13.45
2023-03-31T12:16:49.161Z,9.28
2023-03-31T12:19:27.438Z,10.08
2023-03-31T12:22:28.983Z,15.08
2023-03-31T12:24:57.853Z,11.70
2023-03-31T12:27:35.904Z,8.98
2023-03-31T12:30:31.813Z,9.00
2023-03-31T12:33:35.405Z,10.58
2023-03-31T12:36:20.096Z,9.55
2023-03-31T12:39:14.318Z,9.53
2023-03-31T12:41:57.109Z,10.08
2023-03-31T12:44:50.069Z,9.58
2023-03-31T12:47:42.727Z,9.03
2023-03-31T12:50:38.765Z,10.75
2023-03-31T12:53:28.009Z,13.68
2023-03-31T12:56:00.310Z,12.40
2023-03-31T12:58:36.919Z,8.85
2023-03-31T13:01:23.504Z,13.72
2023-03-31T13:04:19.381Z,8.85
2023-03-31T13:06:55.193Z,11.70
2023-03-31T13:12:22.370Z,11.50
2023-03-31T13:14:54.267Z,9.03
2023-03-31T13:17:29.603Z,9.95
2023-03-31T13:20:27.441Z,10.63
2023-03-31T13:23:19.329Z,9.53
2023-03-31T13:25:56.246Z,9.25
2023-03-31T13:28:41.951Z,8.58
2023-03-31T13:31:13.083Z,10.48
2023-03-31T13:33:55.537Z,11.93
2023-03-31T13:36:45.431Z,12.85
2023-03-31T13:39:57.632Z,9.08
2023-03-31T13:42:59.560Z,9.40
2023-03-31T13:46:00.453Z,13.43
2023-03-31T13:49:00.538Z,18.15
2023-03-31T13:52:00.675Z,11.40
2023-03-31T13:55:10.088Z,9.58
2023-03-31T13:58:24.839Z,11.68
2023-03-31T14:00:49.005Z,9.43
2023-03-31T14:03:41.324Z,11.40
2023-03-31T14:06:37.419Z,9.05
2023-03-31T14:09:10.748Z,11.97
2023-03-31T14:11:39.790Z,8.40
2023-03-31T14:14:16.363Z,8.85
2023-03-31T14:17:02.318Z,10.05
2023-03-31T14:19:49.563Z,8.15
2023-03-31T14:23:02.725Z,8.88
2023-03-31T14:25:54.515Z,8.20
2023-03-31T14:28:53.922Z,9.78
2023-03-31T14:31:35.128Z,8.28
2023-03-31T14:34:19.315Z,8.43
2023-03-31T14:36:57.471Z,8.25
2023-03-31T14:39:34.484Z,7.78
2023-03-31T14:44:34.650Z,11.70
2023-03-31T14:47:03.495Z,9.85
2023-03-31T14:49:38.575Z,12.10
2023-03-31T14:52:19.611Z,11.00
2023-03-31T14:54:51.183Z,12.73
2023-03-31T14:57:24.553Z,9.68
2023-03-31T14:59:53.585Z,10.08
2023-03-31T15:02:33.304Z,12.35
2023-03-31T15:05:07.242Z,9.75
2023-03-31T15:07:36.753Z,10.32
2023-03-31T15:10:07.046Z,11.28
2023-03-31T15:12:38.460Z,12.53
2023-03-31T15:15:08.579Z,12.88
2023-03-31T15:17:40.116Z,11.20
2023-03-31T15:20:32.272Z,10.38
2023-03-31T15:23:05.269Z,14.13
2023-03-31T15:25:39.814Z,13.18
2023-03-31T15:28:11.677Z,10.58
2023-03-31T15:30:41.360Z,12.10
2023-03-31T15:33:22.047Z,11.12
2023-03-31T15:35:51.747Z,15.70
2023-03-31T15:38:22.563Z,17.73
2023-03-31T15:40:56.214Z,14.05
2023-03-31T15:43:50.453Z,13.93
2023-03-31T15:46:44.034Z,13.20
2023-03-31T15:49:21.360Z,14.05
2023-03-31T15:54:40.416Z,15.13
2023-03-31T15:57:09.585Z,13.25
2023-03-31T16:02:25.569Z,12.47
2023-03-31T16:05:01.638Z,14.00
2023-03-31T16:07:34.216Z,15.80
2023-03-31T16:10:21.253Z,14.20
2023-03-31T16:13:04.032Z,14.38
2023-03-31T16:15:38.096Z,17.52
2023-03-31T16:18:17.429Z,17.35
2023-03-31T16:20:57.728Z,18.50
2023-03-31T16:23:33.888Z,13.78
2023-03-31T16:26:02.742Z,19.27
2023-03-31T16:28:36.633Z,19.62
2023-03-31T16:31:06.355Z,12.73
2023-03-31T16:33:55.402Z,12.05
2023-03-31T16:36:24.372Z,13.28
2023-03-31T16:38:59.682Z,13.20
2023-03-31T16:41:29.438Z,11.13
2023-03-31T16:43:58.273Z,14.85
2023-03-31T16:46:27.377Z,11.48
2023-03-31T16:48:56.728Z,18.02
2023-03-31T16:51:26.012Z,14.85
2023-03-31T16:53:57.573Z,15.72
2023-03-31T16:56:26.159Z,16.15
2023-03-31T16:58:56.124Z,13.83
2023-03-31T17:01:25.112Z,16.57
2023-03-31T17:03:55.836Z,15.65
2023-03-31T17:06:25.348Z,17.30
2023-03-31T17:08:54.238Z,15.18
2023-03-31T17:11:23.572Z,13.22
2023-03-31T17:13:54.963Z,17.85
2023-03-31T17:18:56.195Z,14.65
2023-03-31T17:21:26.237Z,14.38
2023-03-31T17:23:54.894Z,17.70
2023-03-31T17:26:23.701Z,17.02
2023-03-31T17:28:53.464Z,16.67
2023-03-31T17:31:22.430Z,16.25
2023-03-31T17:33:51.134Z,17.40
2023-03-31T17:36:23.038Z,15.30
2023-03-31T17:38:51.860Z,17.55
2023-03-31T17:41:20.972Z,16.07
2023-03-31T17:43:50.727Z,16.42
2023-03-31T17:46:19.427Z,15.10
2023-03-31T17:48:53.127Z,17.07
2023-03-31T17:51:23.111Z,15.70
2023-03-31T17:53:53.843Z,16.87
2023-03-31T17:56:23.577Z,18.05
2023-03-31T17:58:52.518Z,18.73
2023-03-31T18:01:22.856Z,17.12
2023-03-31T18:03:51.943Z,17.75
2023-03-31T18:06:22.072Z,16.73
2023-03-31T18:08:52.128Z,18.10
2023-03-31T18:11:21.779Z,20.55
2023-03-31T18:13:52.245Z,19.52
2023-03-31T18:16:21.006Z,19.92
2023-03-31T18:18:50.652Z,18.05
2023-03-31T18:21:20.627Z,22.00
2023-03-31T18:23:52.521Z,22.87
2023-03-31T18:26:23.319Z,19.62
2023-03-31T18:28:53.506Z,27.37
2023-03-31T18:31:22.231Z,24.50
2023-03-31T18:33:52.150Z,24.00
2023-03-31T18:36:21.773Z,25.05
2023-03-31T18:38:51.259Z,25.57
2023-03-31T18:41:20.748Z,24.35
2023-03-31T18:43:52.125Z,25.48
2023-03-31T18:46:21.264Z,26.52
2023-03-31T18:48:51.014Z,22.67
2023-03-31T18:51:19.792Z,25.97
2023-03-31T18:53:49.280Z,27.67
2023-03-31T18:56:18.274Z,26.27
2023-03-31T18:58:51.488Z,31.55
2023-03-31T19:01:21.060Z,27.90
2023-03-31T19:03:51.216Z,31.17
2023-03-31T19:06:22.706Z,28.23
2023-03-31T19:08:54.555Z,30.52
2023-03-31T19:11:23.670Z,27.52
2023-03-31T19:13:54.271Z,26.75
2023-03-31T19:16:27.311Z,30.82
2023-03-31T19:18:57.381Z,25.57
2023-03-31T19:21:29.116Z,28.10
2023-03-31T19:23:57.757Z,27.32
2023-03-31T19:26:29.826Z,26.90
2023-03-31T19:28:59.945Z,31.27
2023-03-31T19:31:32.195Z,29.07
2023-03-31T19:34:01.703Z,28.07
2023-03-31T19:36:30.545Z,27.07
2023-03-31T19:38:59.221Z,25.95
2023-03-31T19:41:29.008Z,26.27
2023-03-31T19:43:58.479Z,25.82
2023-03-31T19:46:28.602Z,31.52
2023-03-31T19:48:57.622Z,31.48
2023-03-31T19:51:27.320Z,31.17
2023-03-31T19:53:57.232Z,34.70
2023-03-31T19:56:28.277Z,27.98
2023-03-31T19:58:59.052Z,31.10
2023-03-31T20:01:27.991Z,31.68
2023-03-31T20:03:58.323Z,30.15
2023-03-31T20:06:29.406Z,29.00
2023-03-31T20:09:00.247Z,30.08
2023-03-31T20:11:30.929Z,26.75
2023-03-31T20:14:00.333Z,28.60
2023-03-31T20:16:30.134Z,29.77
2023-03-31T20:19:03.868Z,28.00
2023-03-31T20:21:35.976Z,29.95
2023-03-31T20:24:07.750Z,31.05
2023-03-31T20:26:36.907Z,27.13
2023-03-31T20:29:05.729Z,27.73
2023-03-31T20:31:39.839Z,27.80
2023-03-31T20:34:14.854Z,33.78
2023-03-31T20:36:48.277Z,27.45
2023-03-31T20:39:18.163Z,27.82
2023-03-31T20:41:47.903Z,27.22
2023-03-31T20:44:18.455Z,25.62
2023-03-31T20:46:48.706Z,26.05
2023-03-31T20:49:17.497Z,26.97
2023-03-31T20:51:47.705Z,26.95
2023-03-31T20:54:18.744Z,27.20
2023-03-31T20:56:47.433Z,25.10
2023-03-31T20:59:18.356Z,25.35
2023-03-31T21:01:49.153Z,28.92
2023-03-31T21:04:20.790Z,29.50
2023-03-31T21:06:50.221Z,23.15
2023-03-31T21:09:18.752Z,27.85
2023-03-31T21:11:47.602Z,26.02
2023-03-31T21:14:16.645Z,26.73
2023-03-31T21:16:45.477Z,25.57
2023-03-31T21:19:15.168Z,23.75
2023-03-31T21:21:45.064Z,28.95
2023-03-31T21:24:13.838Z,26.10
2023-03-31T21:26:43.611Z,26.37
2023-03-31T21:29:14.476Z,25.50
2023-03-31T21:31:45.049Z,24.45
2023-03-31T21:34:15.568Z,26.33
2023-03-31T21:36:44.820Z,25.70
2023-03-31T21:39:13.873Z,25.00
2023-03-31T21:41:44.344Z,24.85
2023-03-31T21:44:15.013Z,28.10
2023-03-31T21:46:44.928Z,22.60
2023-03-31T21:49:17.302Z,25.55
2023-03-31T21:51:47.132Z,26.93
2023-03-31T21:54:17.098Z,24.30
2023-03-31T21:56:46.299Z,25.62
2023-03-31T21:59:15.511Z,23.30
2023-03-31T22:01:44.479Z,24.47
2023-03-31T22:04:17.475Z,28.12
2023-03-31T22:06:47.194Z,24.60
2023-03-31T22:09:15.911Z,25.57
2023-03-31T22:11:44.668Z,20.95
2023-03-31T22:14:13.990Z,24.85
2023-03-31T22:16:42.662Z,26.60
2023-03-31T22:19:13.277Z,23.92
2023-03-31T22:21:43.950Z,27.00
2023-03-31T22:24:13.432Z,24.07
2023-03-31T22:26:42.321Z,24.30
2023-03-31T22:29:16.122Z,23.75
2023-03-31T22:31:45.799Z,25.75
2023-03-31T22:34:18.108Z,25.77
2023-03-31T22:36:47.817Z,24.67
2023-03-31T22:39:16.901Z,22.32
2023-03-31T22:41:46.095Z,24.65
2023-03-31T22:44:15.185Z,26.42
2023-03-31T22:46:48.524Z,24.02
2023-03-31T22:49:17.932Z,24.77
2023-03-31T22:51:47.522Z,26.42
2023-03-31T22:54:16.666Z,25.50
2023-03-31T22:56:45.944Z,25.50
2023-03-31T22:59:15.933Z,27.20
2023-03-31T23:01:46.976Z,28.52
2023-03-31T23:04:16.138Z,27.45
2023-03-31T23:06:44.961Z,29.20
2023-03-31T23:09:13.790Z,27.60
2023-03-31T23:11:44.462Z,27.55
2023-03-31T23:14:13.898Z,24.87
2023-03-31T23:16:43.814Z,25.80
2023-03-31T23:19:12.940Z,26.35
2023-03-31T23:21:43.233Z,23.60
2023-03-31T23:24:12.439Z,25.12
2023-03-31T23:26:42.936Z,23.47
2023-03-31T23:29:11.820Z,22.60
2023-03-31T23:31:40.965Z,23.32
2023-03-31T23:34:11.780Z,23.83
2023-03-31T23:36:40.675Z,24.37
2023-03-31T23:44:44.052Z,24.52
2023-03-31T23:47:12.994Z,23.38
2023-03-31T23:49:42.405Z,25.57
2023-03-31T23:52:12.451Z,23.47
2023-03-31T23:54:41.357Z,23.80
2023-03-31T23:57:11.301Z,25.35
2023-03-31T23:59:41.458Z,24.20
